TAF and METAR

METAR for Yakutsk Airport

UEEE 170300Z 33005MPS 290V360 CAVOK 26/06 Q1004 R23L/09//60 NOSIG RMK QFE744
Report created 17. jul 05:00
wind 10 knots from NNW (330°) Wind direction varies from WNW to N Clear sky Temperature 26° with dewpoint at 6° (Humidity 27.87%) Pressure 1004 hPa not measurable mm of clear and dry is covering 51% - 100% of runway 23L and friction coefficient is 0.6

TAF for Yakutsk Airport

TAF UEEE 170200Z 1703/1809 30007G13MPS 5000 FU SCT020CB OVC070 TX27/1706Z TN11/1718Z TEMPO 1703/1715 2100 -TSRA TEMPO 1715/1802 24003G08MPS 0500 SHRA FG VV002
Report created 17. jul 04:00

between 17. jul 05:00 - 18. jul 11:00

wind 14 knots from WNW (300°) with gusts up to 26 knots visibility 5000 meters smoke scattered clouds (~50% cover) at 2000 feet of type cumulonimbus overcast at 7000 feet Max temperature 27° expected today at around 08 o'clock Min temperature 11° expected today at around 20 o'clock

temporarily between 17. jul 05:00 - 17. jul 17:00

visibility 2100 meters light thunderstorm and rain

temporarily between 17. jul 17:00 - 18. jul 04:00

wind 6 knots from WSW (240°) with gusts up to 16 knots visibility 500 meters rain showers fog vertical visibility 200 feet